sensor_id;sensor_type;location;lat;lon;timestamp;pressure;altitude;pressure_sealevel;temperature;humidity
20909;BME280;10614;53.198;6.570;2023-04-08T00:01:46;102434.41;;;7.52;78.88
20909;BME280;10614;53.198;6.570;2023-04-08T00:03:47;102433.53;;;7.50;79.46
20909;BME280;10614;53.198;6.570;2023-04-08T00:05:50;102426.53;;;7.48;79.68
20909;BME280;10614;53.198;6.570;2023-04-08T00:07:52;102433.53;;;7.43;80.24
20909;BME280;10614;53.198;6.570;2023-04-08T00:09:54;102439.66;;;7.38;80.85
20909;BME280;10614;53.198;6.570;2023-04-08T00:11:56;102437.03;;;7.37;81.06
20909;BME280;10614;53.198;6.570;2023-04-08T00:13:58;102434.41;;;7.34;81.82
20909;BME280;10614;53.198;6.570;2023-04-08T00:16:00;102444.91;;;7.34;82.04
20909;BME280;10614;53.198;6.570;2023-04-08T00:18:02;102444.91;;;7.31;82.07
20909;BME280;10614;53.198;6.570;2023-04-08T00:20:05;102451.88;;;7.30;82.82
20909;BME280;10614;53.198;6.570;2023-04-08T00:22:08;102448.41;;;7.28;82.59
20909;BME280;10614;53.198;6.570;2023-04-08T00:24:10;102443.16;;;7.25;83.11
20909;BME280;10614;53.198;6.570;2023-04-08T00:26:12;102450.13;;;7.23;83.12
20909;BME280;10614;53.198;6.570;2023-04-08T00:28:14;102445.78;;;7.22;83.77
20909;BME280;10614;53.198;6.570;2023-04-08T00:30:15;102451.88;;;7.18;84.39
20909;BME280;10614;53.198;6.570;2023-04-08T00:32:17;102451.00;;;7.11;84.61
20909;BME280;10614;53.198;6.570;2023-04-08T00:34:19;102447.50;;;7.06;85.28
20909;BME280;10614;53.198;6.570;2023-04-08T00:36:21;102453.63;;;7.05;84.58
20909;BME280;10614;53.198;6.570;2023-04-08T00:38:24;102457.13;;;7.06;84.87
20909;BME280;10614;53.198;6.570;2023-04-08T00:40:26;102459.72;;;7.04;86.26
20909;BME280;10614;53.198;6.570;2023-04-08T00:42:29;102454.50;;;7.03;86.51
20909;BME280;10614;53.198;6.570;2023-04-08T00:44:31;102453.63;;;7.01;86.37
20909;BME280;10614;53.198;6.570;2023-04-08T00:46:35;102455.38;;;6.98;86.81
20909;BME280;10614;53.198;6.570;2023-04-08T00:48:38;102456.25;;;6.96;86.94
20909;BME280;10614;53.198;6.570;2023-04-08T00:50:42;102451.88;;;6.93;86.97
20909;BME280;10614;53.198;6.570;2023-04-08T00:52:46;102461.47;;;6.93;87.58
20909;BME280;10614;53.198;6.570;2023-04-08T00:54:49;102459.72;;;6.92;87.89
20909;BME280;10614;53.198;6.570;2023-04-08T00:56:50;102454.47;;;6.90;88.07
20909;BME280;10614;53.198;6.570;2023-04-08T00:58:52;102457.13;;;6.89;87.92
20909;BME280;10614;53.198;6.570;2023-04-08T01:00:57;102459.72;;;6.84;88.68
20909;BME280;10614;53.198;6.570;2023-04-08T01:03:00;102453.59;;;6.81;89.31
20909;BME280;10614;53.198;6.570;2023-04-08T01:05:06;102457.06;;;6.76;89.17
20909;BME280;10614;53.198;6.570;2023-04-08T01:07:11;102458.84;;;6.74;90.03
20909;BME280;10614;53.198;6.570;2023-04-08T01:09:14;102460.59;;;6.72;90.18
20909;BME280;10614;53.198;6.570;2023-04-08T01:11:19;102458.84;;;6.73;89.69
20909;BME280;10614;53.198;6.570;2023-04-08T01:13:22;102462.31;;;6.69;90.49
20909;BME280;10614;53.198;6.570;2023-04-08T01:15:25;102463.16;;;6.66;90.76
20909;BME280;10614;53.198;6.570;2023-04-08T01:17:27;102460.56;;;6.63;90.93
20909;BME280;10614;53.198;6.570;2023-04-08T01:19:30;102463.19;;;6.63;90.95
20909;BME280;10614;53.198;6.570;2023-04-08T01:21:32;102463.16;;;6.60;91.73
20909;BME280;10614;53.198;6.570;2023-04-08T01:23:36;102464.91;;;6.58;91.73
20909;BME280;10614;53.198;6.570;2023-04-08T01:25:44;102460.56;;;6.55;92.08
20909;BME280;10614;53.198;6.570;2023-04-08T01:27:46;102462.28;;;6.53;92.19
20909;BME280;10614;53.198;6.570;2023-04-08T01:29:48;102466.63;;;6.53;91.78
20909;BME280;10614;53.198;6.570;2023-04-08T01:31:50;102463.16;;;6.51;91.97
20909;BME280;10614;53.198;6.570;2023-04-08T01:33:52;102464.00;;;6.50;92.20
20909;BME280;10614;53.198;6.570;2023-04-08T01:35:54;102457.88;;;6.48;92.37
20909;BME280;10614;53.198;6.570;2023-04-08T01:37:57;102463.97;;;6.44;93.38
20909;BME280;10614;53.198;6.570;2023-04-08T01:39:59;102461.34;;;6.38;93.60
20909;BME280;10614;53.198;6.570;2023-04-08T01:42:04;102461.34;;;6.36;94.48
20909;BME280;10614;53.198;6.570;2023-04-08T01:44:05;102459.59;;;6.35;94.63
20909;BME280;10614;53.198;6.570;2023-04-08T01:46:07;102470.91;;;6.34;94.94
20909;BME280;10614;53.198;6.570;2023-04-08T01:48:11;102464.81;;;6.32;94.70
20909;BME280;10614;53.198;6.570;2023-04-08T01:50:13;102472.66;;;6.29;94.06
20909;BME280;10614;53.198;6.570;2023-04-08T01:52:15;102466.56;;;6.25;94.38
20909;BME280;10614;53.198;6.570;2023-04-08T01:54:18;102466.53;;;6.24;94.81
20909;BME280;10614;53.198;6.570;2023-04-08T01:56:20;102470.03;;;6.23;94.97
20909;BME280;10614;53.198;6.570;2023-04-08T01:58:24;102473.50;;;6.22;95.07
20909;BME280;10614;53.198;6.570;2023-04-08T02:00:28;102475.22;;;6.20;95.79
20909;BME280;10614;53.198;6.570;2023-04-08T02:02:31;102476.97;;;6.16;96.25
20909;BME280;10614;53.198;6.570;2023-04-08T02:04:33;102473.47;;;6.14;95.83
20909;BME280;10614;53.198;6.570;2023-04-08T02:06:35;102478.69;;;6.12;96.39
20909;BME280;10614;53.198;6.570;2023-04-08T02:08:37;102467.34;;;6.10;96.56
20909;BME280;10614;53.198;6.570;2023-04-08T02:10:39;102472.56;;;6.09;96.43
20909;BME280;10614;53.198;6.570;2023-04-08T02:12:40;102483.03;;;6.07;96.73
20909;BME280;10614;53.198;6.570;2023-04-08T02:14:44;102475.16;;;6.06;97.54
20909;BME280;10614;53.198;6.570;2023-04-08T02:16:47;102480.34;;;6.01;97.02
20909;BME280;10614;53.198;6.570;2023-04-08T02:18:53;102470.78;;;5.97;97.39
20909;BME280;10614;53.198;6.570;2023-04-08T02:20:56;102480.28;;;5.93;97.69
20909;BME280;10614;53.198;6.570;2023-04-08T02:23:01;102477.66;;;5.92;98.79
20909;BME280;10614;53.198;6.570;2023-04-08T02:25:06;102476.78;;;5.91;98.11
20909;BME280;10614;53.198;6.570;2023-04-08T02:27:08;102477.66;;;5.89;98.34
20909;BME280;10614;53.198;6.570;2023-04-08T02:29:11;102482.88;;;5.89;98.62
20909;BME280;10614;53.198;6.570;2023-04-08T02:31:15;102489.81;;;5.84;99.06
20909;BME280;10614;53.198;6.570;2023-04-08T02:33:18;102488.06;;;5.81;99.64
20909;BME280;10614;53.198;6.570;2023-04-08T02:35:21;102486.31;;;5.80;99.41
20909;BME280;10614;53.198;6.570;2023-04-08T02:37:23;102488.91;;;5.80;99.33
20909;BME280;10614;53.198;6.570;2023-04-08T02:39:29;102501.09;;;5.78;100.00
20909;BME280;10614;53.198;6.570;2023-04-08T02:41:31;102495.00;;;5.76;99.61
20909;BME280;10614;53.198;6.570;2023-04-08T02:43:32;102495.84;;;5.75;100.00
20909;BME280;10614;53.198;6.570;2023-04-08T02:45:36;102491.50;;;5.74;100.00
20909;BME280;10614;53.198;6.570;2023-04-08T02:47:40;102492.38;;;5.71;100.00
20909;BME280;10614;53.198;6.570;2023-04-08T02:49:41;102491.47;;;5.71;100.00
20909;BME280;10614;53.198;6.570;2023-04-08T02:51:43;102486.25;;;5.69;100.00
20909;BME280;10614;53.198;6.570;2023-04-08T02:53:44;102487.97;;;5.66;100.00
20909;BME280;10614;53.198;6.570;2023-04-08T02:55:46;102493.19;;;5.63;100.00
20909;BME280;10614;53.198;6.570;2023-04-08T02:57:47;102495.75;;;5.61;100.00
20909;BME280;10614;53.198;6.570;2023-04-08T02:59:50;102492.28;;;5.61;100.00
20909;BME280;10614;53.198;6.570;2023-04-08T03:01:52;102504.47;;;5.59;100.00
20909;BME280;10614;53.198;6.570;2023-04-08T03:03:55;102504.47;;;5.59;100.00
20909;BME280;10614;53.198;6.570;2023-04-08T03:05:57;102507.09;;;5.57;100.00
20909;BME280;10614;53.198;6.570;2023-04-08T03:07:59;102502.69;;;5.55;100.00
20909;BME280;10614;53.198;6.570;2023-04-08T03:10:01;102508.81;;;5.55;100.00
20909;BME280;10614;53.198;6.570;2023-04-08T03:12:03;102509.66;;;5.54;100.00
20909;BME280;10614;53.198;6.570;2023-04-08T03:14:05;102508.75;;;5.50;100.00
20909;BME280;10614;53.198;6.570;2023-04-08T03:16:07;102506.97;;;5.45;100.00
20909;BME280;10614;53.198;6.570;2023-04-08T03:18:08;102506.97;;;5.43;100.00
20909;BME280;10614;53.198;6.570;2023-04-08T03:20:12;102505.22;;;5.41;100.00
20909;BME280;10614;53.198;6.570;2023-04-08T03:22:13;102507.78;;;5.39;100.00
20909;BME280;10614;53.198;6.570;2023-04-08T03:24:15;102514.75;;;5.40;100.00
20909;BME280;10614;53.198;6.570;2023-04-08T03:26:17;102510.41;;;5.39;100.00
20909;BME280;10614;53.198;6.570;2023-04-08T03:28:19;102502.56;;;5.36;100.00
20909;BME280;10614;53.198;6.570;2023-04-08T03:30:21;102510.38;;;5.38;100.00
20909;BME280;10614;53.198;6.570;2023-04-08T03:32:22;102511.25;;;5.37;100.00
20909;BME280;10614;53.198;6.570;2023-04-08T03:34:24;102510.38;;;5.35;100.00
20909;BME280;10614;53.198;6.570;2023-04-08T03:36:27;102520.81;;;5.35;100.00
20909;BME280;10614;53.198;6.570;2023-04-08T03:38:30;102516.44;;;5.32;100.00
20909;BME280;10614;53.198;6.570;2023-04-08T03:40:32;102516.41;;;5.29;100.00
20909;BME280;10614;53.198;6.570;2023-04-08T03:42:33;102513.78;;;5.26;100.00
20909;BME280;10614;53.198;6.570;2023-04-08T03:44:35;102517.19;;;5.22;100.00
20909;BME280;10614;53.198;6.570;2023-04-08T03:46:37;102523.31;;;5.22;100.00
20909;BME280;10614;53.198;6.570;2023-04-08T03:48:39;102514.56;;;5.19;100.00
20909;BME280;10614;53.198;6.570;2023-04-08T03:50:40;102521.50;;;5.17;100.00
20909;BME280;10614;53.198;6.570;2023-04-08T03:52:44;102517.16;;;5.16;100.00
20909;BME280;10614;53.198;6.570;2023-04-08T03:54:45;102521.50;;;5.14;100.00
20909;BME280;10614;53.198;6.570;2023-04-08T03:56:48;102514.50;;;5.13;100.00
20909;BME280;10614;53.198;6.570;2023-04-08T03:58:50;102513.66;;;5.11;100.00
20909;BME280;10614;53.198;6.570;2023-04-08T04:00:52;102507.53;;;5.08;100.00
20909;BME280;10614;53.198;6.570;2023-04-08T04:02:55;102518.84;;;5.09;100.00
20909;BME280;10614;53.198;6.570;2023-04-08T04:04:57;102511.88;;;5.08;100.00
20909;BME280;10614;53.198;6.570;2023-04-08T04:06:58;102524.91;;;5.06;100.00
20909;BME280;10614;53.198;6.570;2023-04-08T04:09:02;102517.94;;;5.04;100.00
20909;BME280;10614;53.198;6.570;2023-04-08T04:11:04;102520.53;;;5.04;100.00
20909;BME280;10614;53.198;6.570;2023-04-08T04:13:05;102520.50;;;5.02;100.00
20909;BME280;10614;53.198;6.570;2023-04-08T04:15:09;102524.88;;;5.02;100.00
20909;BME280;10614;53.198;6.570;2023-04-08T04:17:11;102520.47;;;5.01;100.00
20909;BME280;10614;53.198;6.570;2023-04-08T04:19:13;102519.63;;;5.00;100.00
20909;BME280;10614;53.198;6.570;2023-04-08T04:21:14;102523.09;;;4.99;100.00
20909;BME280;10614;53.198;6.570;2023-04-08T04:23:16;102523.06;;;4.98;100.00
20909;BME280;10614;53.198;6.570;2023-04-08T04:25:20;102527.44;;;4.99;100.00
20909;BME280;10614;53.198;6.570;2023-04-08T04:27:21;102535.25;;;4.97;100.00
20909;BME280;10614;53.198;6.570;2023-04-08T04:29:23;102530.88;;;4.96;100.00
20909;BME280;10614;53.198;6.570;2023-04-08T04:31:25;102525.66;;;4.95;100.00
20909;BME280;10614;53.198;6.570;2023-04-08T04:33:27;102532.59;;;4.93;100.00
20909;BME280;10614;53.198;6.570;2023-04-08T04:35:28;102529.91;;;4.85;100.00
20909;BME280;10614;53.198;6.570;2023-04-08T04:37:30;102543.88;;;4.90;100.00
20909;BME280;10614;53.198;6.570;2023-04-08T04:39:32;102539.50;;;4.89;100.00
20909;BME280;10614;53.198;6.570;2023-04-08T04:41:35;102542.09;;;4.89;100.00
20909;BME280;10614;53.198;6.570;2023-04-08T04:43:39;102543.84;;;4.89;100.00
20909;BME280;10614;53.198;6.570;2023-04-08T04:45:41;102546.47;;;4.89;100.00
20909;BME280;10614;53.198;6.570;2023-04-08T04:47:44;102542.97;;;4.88;100.00
20909;BME280;10614;53.198;6.570;2023-04-08T04:49:46;102537.75;;;4.85;100.00
20909;BME280;10614;53.198;6.570;2023-04-08T04:51:48;102549.06;;;4.87;100.00
20909;BME280;10614;53.198;6.570;2023-04-08T04:53:49;102542.97;;;4.86;100.00
20909;BME280;10614;53.198;6.570;2023-04-08T04:55:52;102548.19;;;4.85;100.00
20909;BME280;10614;53.198;6.570;2023-04-08T04:57:55;102542.91;;;4.82;100.00
20909;BME280;10614;53.198;6.570;2023-04-08T04:59:56;102550.72;;;4.82;100.00
20909;BME280;10614;53.198;6.570;2023-04-08T05:01:58;102556.81;;;4.81;100.00
20909;BME280;10614;53.198;6.570;2023-04-08T05:04:00;102549.00;;;4.81;100.00
20909;BME280;10614;53.198;6.570;2023-04-08T05:06:01;102553.34;;;4.82;100.00
20909;BME280;10614;53.198;6.570;2023-04-08T05:08:04;102557.69;;;4.81;100.00
20909;BME280;10614;53.198;6.570;2023-04-08T05:10:07;102552.47;;;4.81;100.00
20909;BME280;10614;53.198;6.570;2023-04-08T05:12:08;102559.44;;;4.81;100.00
20909;BME280;10614;53.198;6.570;2023-04-08T05:14:13;102555.06;;;4.80;100.00
20909;BME280;10614;53.198;6.570;2023-04-08T05:16:15;102560.28;;;4.80;100.00
20909;BME280;10614;53.198;6.570;2023-04-08T05:18:17;102562.00;;;4.79;100.00
20909;BME280;10614;53.198;6.570;2023-04-08T05:20:20;102566.34;;;4.79;100.00
20909;BME280;10614;53.198;6.570;2023-04-08T05:22:21;102570.72;;;4.80;100.00
20909;BME280;10614;53.198;6.570;2023-04-08T05:24:23;102564.63;;;4.78;100.00
20909;BME280;10614;53.198;6.570;2023-04-08T05:26:25;102571.56;;;4.79;100.00
20909;BME280;10614;53.198;6.570;2023-04-08T05:28:27;102575.06;;;4.79;100.00
20909;BME280;10614;53.198;6.570;2023-04-08T05:30:30;102575.94;;;4.80;100.00
20909;BME280;10614;53.198;6.570;2023-04-08T05:32:32;102569.00;;;4.80;100.00
20909;BME280;10614;53.198;6.570;2023-04-08T05:34:33;102574.22;;;4.80;100.00
20909;BME280;10614;53.198;6.570;2023-04-08T05:36:35;102576.81;;;4.82;100.00
20909;BME280;10614;53.198;6.570;2023-04-08T05:38:37;102578.56;;;4.81;100.00
20909;BME280;10614;53.198;6.570;2023-04-08T05:40:43;102590.78;;;4.82;100.00
20909;BME280;10614;53.198;6.570;2023-04-08T05:42:45;102575.09;;;4.81;100.00
20909;BME280;10614;53.198;6.570;2023-04-08T05:44:47;102579.44;;;4.80;100.00
20909;BME280;10614;53.198;6.570;2023-04-08T05:46:50;102589.88;;;4.82;100.00
20909;BME280;10614;53.198;6.570;2023-04-08T05:48:52;102589.00;;;4.81;100.00
20909;BME280;10614;53.198;6.570;2023-04-08T05:50:54;102595.97;;;4.84;100.00
20909;BME280;10614;53.198;6.570;2023-04-08T05:52:56;102597.75;;;4.85;100.00
20909;BME280;10614;53.198;6.570;2023-04-08T05:54:58;102603.84;;;4.85;100.00
20909;BME280;10614;53.198;6.570;2023-04-08T05:57:00;102606.47;;;4.87;100.00
20909;BME280;10614;53.198;6.570;2023-04-08T05:59:01;102608.22;;;4.88;100.00
20909;BME280;10614;53.198;6.570;2023-04-08T06:01:04;102608.25;;;4.91;100.00
20909;BME280;10614;53.198;6.570;2023-04-08T06:03:09;102607.41;;;4.92;100.00
20909;BME280;10614;53.198;6.570;2023-04-08T06:05:11;102603.09;;;4.94;100.00
20909;BME280;10614;53.198;6.570;2023-04-08T06:07:13;102609.16;;;4.96;100.00
20909;BME280;10614;53.198;6.570;2023-04-08T06:09:14;102611.84;;;4.99;100.00
20909;BME280;10614;53.198;6.570;2023-04-08T06:11:16;102608.38;;;5.02;100.00
20909;BME280;10614;53.198;6.570;2023-04-08T06:13:18;102612.75;;;5.04;100.00
20909;BME280;10614;53.198;6.570;2023-04-08T06:15:21;102618.88;;;5.06;100.00
20909;BME280;10614;53.198;6.570;2023-04-08T06:17:23;102615.44;;;5.11;100.00
20909;BME280;10614;53.198;6.570;2023-04-08T06:19:26;102614.56;;;5.12;100.00
20909;BME280;10614;53.198;6.570;2023-04-08T06:21:28;102621.59;;;5.17;100.00
20909;BME280;10614;53.198;6.570;2023-04-08T06:23:29;102617.28;;;5.21;100.00
20909;BME280;10614;53.198;6.570;2023-04-08T06:25:31;102620.78;;;5.23;100.00
20909;BME280;10614;53.198;6.570;2023-04-08T06:27:33;102618.22;;;5.26;100.00
20909;BME280;10614;53.198;6.570;2023-04-08T06:29:35;102622.59;;;5.30;100.00
20909;BME280;10614;53.198;6.570;2023-04-08T06:31:36;102620.91;;;5.35;100.00
20909;BME280;10614;53.198;6.570;2023-04-08T06:33:38;102631.38;;;5.38;100.00
20909;BME280;10614;53.198;6.570;2023-04-08T06:35:41;102634.91;;;5.42;100.00
20909;BME280;10614;53.198;6.570;2023-04-08T06:37:44;102638.41;;;5.44;100.00
20909;BME280;10614;53.198;6.570;2023-04-08T06:39:46;102635.81;;;5.47;100.00
20909;BME280;10614;53.198;6.570;2023-04-08T06:41:47;102632.38;;;5.48;100.00
20909;BME280;10614;53.198;6.570;2023-04-08T06:43:50;102634.13;;;5.49;100.00
20909;BME280;10614;53.198;6.570;2023-04-08T06:45:52;102628.91;;;5.50;100.00
20909;BME280;10614;53.198;6.570;2023-04-08T06:47:53;102636.78;;;5.54;100.00
20909;BME280;10614;53.198;6.570;2023-04-08T06:49:56;102640.25;;;5.54;100.00
20909;BME280;10614;53.198;6.570;2023-04-08T06:52:00;102628.06;;;5.55;100.00
20909;BME280;10614;53.198;6.570;2023-04-08T06:54:02;102628.94;;;5.57;100.00
20909;BME280;10614;53.198;6.570;2023-04-08T06:56:04;102635.06;;;5.56;100.00
20909;BME280;10614;53.198;6.570;2023-04-08T06:58:05;102636.81;;;5.58;100.00
20909;BME280;10614;53.198;6.570;2023-04-08T07:00:08;102633.31;;;5.59;100.00
20909;BME280;10614;53.198;6.570;2023-04-08T07:02:10;102630.75;;;5.61;100.00
20909;BME280;10614;53.198;6.570;2023-04-08T07:04:12;102635.97;;;5.64;100.00
20909;BME280;10614;53.198;6.570;2023-04-08T07:06:14;102637.78;;;5.68;100.00
20909;BME280;10614;53.198;6.570;2023-04-08T07:08:17;102641.25;;;5.68;100.00
20909;BME280;10614;53.198;6.570;2023-04-08T07:10:20;102644.75;;;5.69;100.00
20909;BME280;10614;53.198;6.570;2023-04-08T07:12:21;102649.13;;;5.73;100.00
20909;BME280;10614;53.198;6.570;2023-04-08T07:14:23;102647.44;;;5.77;100.00
20909;BME280;10614;53.198;6.570;2023-04-08T07:16:25;102650.97;;;5.82;100.00
20909;BME280;10614;53.198;6.570;2023-04-08T07:18:27;102654.47;;;5.84;100.00
20909;BME280;10614;53.198;6.570;2023-04-08T07:20:29;102655.34;;;5.87;100.00
20909;BME280;10614;53.198;6.570;2023-04-08T07:22:30;102654.53;;;5.91;100.00
20909;BME280;10614;53.198;6.570;2023-04-08T07:24:34;102660.69;;;5.95;100.00
20909;BME280;10614;53.198;6.570;2023-04-08T07:26:37;102665.09;;;6.01;100.00
20909;BME280;10614;53.198;6.570;2023-04-08T07:28:38;102668.59;;;6.03;100.00
20909;BME280;10614;53.198;6.570;2023-04-08T07:30:40;102666.00;;;6.04;100.00
20909;BME280;10614;53.198;6.570;2023-04-08T07:32:42;102661.66;;;6.08;100.00
20909;BME280;10614;53.198;6.570;2023-04-08T07:34:44;102666.88;;;6.08;100.00
20909;BME280;10614;53.198;6.570;2023-04-08T07:36:45;102671.28;;;6.09;100.00
20909;BME280;10614;53.198;6.570;2023-04-08T07:38:47;102669.50;;;6.06;100.00
20909;BME280;10614;53.198;6.570;2023-04-08T07:40:50;102666.00;;;6.04;100.00
20909;BME280;10614;53.198;6.570;2023-04-08T07:42:52;102680.88;;;6.11;100.00
20909;BME280;10614;53.198;6.570;2023-04-08T07:44:54;102684.41;;;6.17;100.00
20909;BME280;10614;53.198;6.570;2023-04-08T07:46:55;102684.44;;;6.21;100.00
20909;BME280;10614;53.198;6.570;2023-04-08T07:48:57;102687.94;;;6.25;100.00
20909;BME280;10614;53.198;6.570;2023-04-08T07:51:02;102684.47;;;6.27;100.00
20909;BME280;10614;53.198;6.570;2023-04-08T07:53:04;102685.41;;;6.32;100.00
20909;BME280;10614;53.198;6.570;2023-04-08T07:55:06;102683.66;;;6.36;100.00
20909;BME280;10614;53.198;6.570;2023-04-08T07:57:10;102688.03;;;6.39;100.00
20909;BME280;10614;53.198;6.570;2023-04-08T07:59:12;102688.09;;;6.42;100.00
20909;BME280;10614;53.198;6.570;2023-04-08T08:01:15;102693.34;;;6.46;100.00
20909;BME280;10614;53.198;6.570;2023-04-08T08:03:17;102695.09;;;6.50;100.00
20909;BME280;10614;53.198;6.570;2023-04-08T08:05:19;102691.63;;;6.53;100.00
20909;BME280;10614;53.198;6.570;2023-04-08T08:07:21;102686.44;;;6.56;100.00
20909;BME280;10614;53.198;6.570;2023-04-08T08:09:22;102690.78;;;6.60;100.00
20909;BME280;10614;53.198;6.570;2023-04-08T08:11:24;102688.22;;;6.63;100.00
20909;BME280;10614;53.198;6.570;2023-04-08T08:13:28;102696.09;;;6.68;100.00
20909;BME280;10614;53.198;6.570;2023-04-08T08:15:30;102687.38;;;6.67;100.00
20909;BME280;10614;53.198;6.570;2023-04-08T08:17:32;102684.75;;;6.67;100.00
20909;BME280;10614;53.198;6.570;2023-04-08T08:19:34;102682.13;;;6.67;100.00
20909;BME280;10614;53.198;6.570;2023-04-08T08:21:36;102686.50;;;6.68;100.00
20909;BME280;10614;53.198;6.570;2023-04-08T08:23:38;102684.75;;;6.67;100.00
20909;BME280;10614;53.198;6.570;2023-04-08T08:25:40;102691.72;;;6.68;100.00
20909;BME280;10614;53.198;6.570;2023-04-08T08:27:42;102697.81;;;6.69;100.00
20909;BME280;10614;53.198;6.570;2023-04-08T08:29:46;102702.19;;;6.71;100.00
20909;BME280;10614;53.198;6.570;2023-04-08T08:31:47;102714.44;;;6.75;100.00
20909;BME280;10614;53.198;6.570;2023-04-08T08:33:49;102712.75;;;6.79;100.00
20909;BME280;10614;53.198;6.570;2023-04-08T08:35:51;102714.50;;;6.85;100.00
20909;BME280;10614;53.198;6.570;2023-04-08T08:37:53;102710.16;;;6.88;100.00
20909;BME280;10614;53.198;6.570;2023-04-08T08:39:55;102715.41;;;6.91;100.00
20909;BME280;10614;53.198;6.570;2023-04-08T08:41:57;102717.16;;;6.94;100.00
20909;BME280;10614;53.198;6.570;2023-04-08T08:43:59;102720.66;;;6.97;100.00
20909;BME280;10614;53.198;6.570;2023-04-08T08:46:02;102721.53;;;7.00;100.00
20909;BME280;10614;53.198;6.570;2023-04-08T08:48:05;102727.66;;;7.02;100.00
20909;BME280;10614;53.198;6.570;2023-04-08T08:50:08;102730.31;;;7.03;100.00
20909;BME280;10614;53.198;6.570;2023-04-08T08:52:10;102725.09;;;7.05;100.00
20909;BME280;10614;53.198;6.570;2023-04-08T08:54:11;102737.28;;;7.03;100.00
20909;BME280;10614;53.198;6.570;2023-04-08T08:56:13;102737.28;;;7.01;100.00
20909;BME280;10614;53.198;6.570;2023-04-08T08:58:15;102724.19;;;7.03;100.00
20909;BME280;10614;53.198;6.570;2023-04-08T09:00:17;102730.28;;;7.02;100.00
20909;BME280;10614;53.198;6.570;2023-04-08T09:02:25;102719.81;;;7.00;100.00
20909;BME280;10614;53.198;6.570;2023-04-08T09:04:27;102732.91;;;7.00;100.00
20909;BME280;10614;53.198;6.570;2023-04-08T09:06:29;102745.13;;;6.98;100.00
20909;BME280;10614;53.198;6.570;2023-04-08T09:08:32;102739.00;;;7.02;100.00
20909;BME280;10614;53.198;6.570;2023-04-08T09:10:34;102732.06;;;7.06;100.00
20909;BME280;10614;53.198;6.570;2023-04-08T09:12:52;102721.59;;;7.06;100.00
20909;BME280;10614;53.198;6.570;2023-04-08T09:15:03;102729.44;;;7.03;100.00
20909;BME280;10614;53.198;6.570;2023-04-08T09:17:06;102736.41;;;7.01;100.00
20909;BME280;10614;53.198;6.570;2023-04-08T09:19:10;102736.41;;;7.01;100.00
20909;BME280;10614;53.198;6.570;2023-04-08T09:21:13;102730.25;;;6.97;100.00
20909;BME280;10614;53.198;6.570;2023-04-08T09:23:16;102735.50;;;6.94;100.00
20909;BME280;10614;53.198;6.570;2023-04-08T09:25:22;102733.72;;;6.93;100.00
20909;BME280;10614;53.198;6.570;2023-04-08T09:27:33;102727.63;;;6.92;100.00
20909;BME280;10614;53.198;6.570;2023-04-08T09:29:35;102728.53;;;6.96;100.00
20909;BME280;10614;53.198;6.570;2023-04-08T09:31:38;102726.81;;;6.98;100.00
20909;BME280;10614;53.198;6.570;2023-04-08T09:33:40;102725.94;;;7.01;100.00
20909;BME280;10614;53.198;6.570;2023-04-08T09:35:45;102726.78;;;7.00;100.00
20909;BME280;10614;53.198;6.570;2023-04-08T09:37:47;102722.44;;;7.02;100.00
20909;BME280;10614;53.198;6.570;2023-04-08T09:39:50;102732.09;;;7.07;100.00
20909;BME280;10614;53.198;6.570;2023-04-08T09:41:52;102723.38;;;7.14;100.00
20909;BME280;10614;53.198;6.570;2023-04-08T09:43:59;102723.41;;;7.19;100.00
20909;BME280;10614;53.198;6.570;2023-04-08T09:46:04;102719.94;;;7.26;100.00
20909;BME280;10614;53.198;6.570;2023-04-08T09:48:12;102725.19;;;7.34;100.00
20909;BME280;10614;53.198;6.570;2023-04-08T09:50:18;102724.34;;;7.41;100.00
20909;BME280;10614;53.198;6.570;2023-04-08T09:52:32;102725.25;;;7.48;100.00
20909;BME280;10614;53.198;6.570;2023-04-08T09:54:50;102730.50;;;7.52;100.00
20909;BME280;10614;53.198;6.570;2023-04-08T09:56:57;102727.91;;;7.57;100.00
20909;BME280;10614;53.198;6.570;2023-04-08T09:59:08;102721.78;;;7.63;100.00
20909;BME280;10614;53.198;6.570;2023-04-08T10:01:13;102719.19;;;7.69;100.00
20909;BME280;10614;53.198;6.570;2023-04-08T10:03:25;102726.19;;;7.74;100.00
20909;BME280;10614;53.198;6.570;2023-04-08T10:05:29;102723.56;;;7.80;100.00
20909;BME280;10614;53.198;6.570;2023-04-08T10:07:33;102724.44;;;7.86;100.00
20909;BME280;10614;53.198;6.570;2023-04-08T10:09:35;102730.56;;;7.91;100.00
20909;BME280;10614;53.198;6.570;2023-04-08T10:11:40;102728.84;;;7.94;100.00
20909;BME280;10614;53.198;6.570;2023-04-08T10:13:43;102728.84;;;8.00;100.00
20909;BME280;10614;53.198;6.570;2023-04-08T10:15:45;102730.59;;;8.04;100.00
20909;BME280;10614;53.198;6.570;2023-04-08T10:17:48;102734.97;;;8.09;100.00
20909;BME280;10614;53.198;6.570;2023-04-08T10:19:50;102734.97;;;8.12;100.00
20909;BME280;10614;53.198;6.570;2023-04-08T10:21:52;102737.63;;;8.15;100.00
20909;BME280;10614;53.198;6.570;2023-04-08T10:23:56;102734.97;;;8.18;100.00
20909;BME280;10614;53.198;6.570;2023-04-08T10:26:00;102728.84;;;8.19;100.00
20909;BME280;10614;53.198;6.570;2023-04-08T10:28:23;102736.72;;;8.23;100.00
20909;BME280;10614;53.198;6.570;2023-04-08T10:30:43;102736.75;;;8.27;100.00
20909;BME280;10614;53.198;6.570;2023-04-08T10:32:45;102743.72;;;8.28;100.00
20909;BME280;10614;53.198;6.570;2023-04-08T10:34:52;102740.22;;;8.30;100.00
20909;BME280;10614;53.198;6.570;2023-04-08T10:36:55;102741.97;;;8.31;100.00
20909;BME280;10614;53.198;6.570;2023-04-08T10:39:02;102738.47;;;8.34;100.00
20909;BME280;10614;53.198;6.570;2023-04-08T10:41:05;102738.47;;;8.31;100.00
20909;BME280;10614;53.198;6.570;2023-04-08T10:43:06;102735.84;;;8.32;100.00
20909;BME280;10614;53.198;6.570;2023-04-08T10:45:09;102725.34;;;8.35;100.00